sensor_id;sensor_type;location;lat;lon;timestamp;pressure;altitude;pressure_sealevel;temperature;humidity
50590;BME280;36547;50.514;30.840;2023-04-26T00:00:20;99102.92;;;11.99;60.80
50590;BME280;36547;50.514;30.840;2023-04-26T00:01:22;99104.63;;;12.00;60.83
50590;BME280;36547;50.514;30.840;2023-04-26T00:02:24;99097.70;;;11.98;60.83
50590;BME280;36547;50.514;30.840;2023-04-26T00:03:27;99107.51;;;11.97;61.04
50590;BME280;36547;50.514;30.840;2023-04-26T00:04:30;99108.36;;;11.98;60.88
50590;BME280;36547;50.514;30.840;2023-04-26T00:05:33;99111.16;;;11.96;61.08
50590;BME280;36547;50.514;30.840;2023-04-26T00:06:35;99106.69;;;11.97;61.19
50590;BME280;36547;50.514;30.840;2023-04-26T00:07:38;99110.31;;;11.96;61.10
50590;BME280;36547;50.514;30.840;2023-04-26T00:08:41;99104.98;;;11.96;60.98
50590;BME280;36547;50.514;30.840;2023-04-26T00:09:43;99105.10;;;11.94;61.04
50590;BME280;36547;50.514;30.840;2023-04-26T00:10:46;99106.91;;;11.94;61.14
50590;BME280;36547;50.514;30.840;2023-04-26T00:11:48;99106.06;;;11.93;61.28
50590;BME280;36547;50.514;30.840;2023-04-26T00:12:50;99100.73;;;11.93;61.19
50590;BME280;36547;50.514;30.840;2023-04-26T00:13:52;99109.58;;;11.94;61.26
50590;BME280;36547;50.514;30.840;2023-04-26T00:14:54;99111.60;;;11.90;61.39
50590;BME280;36547;50.514;30.840;2023-04-26T00:15:57;99105.31;;;11.91;61.36
50590;BME280;36547;50.514;30.840;2023-04-26T00:16:59;99107.35;;;11.88;61.63
50590;BME280;36547;50.514;30.840;2023-04-26T00:18:02;99110.13;;;11.86;61.63
50590;BME280;36547;50.514;30.840;2023-04-26T00:19:04;99110.86;;;11.88;61.42
50590;BME280;36547;50.514;30.840;2023-04-26T00:20:07;99112.56;;;11.89;61.45
50590;BME280;36547;50.514;30.840;2023-04-26T00:21:10;99117.15;;;11.87;61.51
50590;BME280;36547;50.514;30.840;2023-04-26T00:22:12;99113.74;;;11.85;61.57
50590;BME280;36547;50.514;30.840;2023-04-26T00:23:14;99111.83;;;11.87;61.76
50590;BME280;36547;50.514;30.840;2023-04-26T00:24:17;99120.66;;;11.88;61.61
50590;BME280;36547;50.514;30.840;2023-04-26T00:25:19;99121.12;;;11.82;61.80
50590;BME280;36547;50.514;30.840;2023-04-26T00:26:22;99118.47;;;11.82;61.81
50590;BME280;36547;50.514;30.840;2023-04-26T00:27:25;99115.92;;;11.80;61.90
50590;BME280;36547;50.514;30.840;2023-04-26T00:28:30;99119.54;;;11.79;61.98
50590;BME280;36547;50.514;30.840;2023-04-26T00:29:33;99118.69;;;11.79;62.01
50590;BME280;36547;50.514;30.840;2023-04-26T00:30:35;99121.45;;;11.77;61.96
50590;BME280;36547;50.514;30.840;2023-04-26T00:31:38;99120.79;;;11.74;62.08
50590;BME280;36547;50.514;30.840;2023-04-26T00:32:41;99119.83;;;11.75;62.16
50590;BME280;36547;50.514;30.840;2023-04-26T00:33:43;99118.23;;;11.72;62.14
50590;BME280;36547;50.514;30.840;2023-04-26T00:34:45;99113.13;;;11.69;62.17
50590;BME280;36547;50.514;30.840;2023-04-26T00:35:48;99112.31;;;11.68;62.21
50590;BME280;36547;50.514;30.840;2023-04-26T00:36:51;99111.68;;;11.65;62.31
50590;BME280;36547;50.514;30.840;2023-04-26T00:37:53;99115.09;;;11.67;62.24
50590;BME280;36547;50.514;30.840;2023-04-26T00:38:56;99114.34;;;11.65;62.33
50590;BME280;36547;50.514;30.840;2023-04-26T00:39:58;99118.92;;;11.63;62.56
50590;BME280;36547;50.514;30.840;2023-04-26T00:41:01;99122.54;;;11.62;62.45
50590;BME280;36547;50.514;30.840;2023-04-26T00:42:03;99120.84;;;11.61;62.43
50590;BME280;36547;50.514;30.840;2023-04-26T00:43:06;99120.84;;;11.61;62.53
50590;BME280;36547;50.514;30.840;2023-04-26T00:44:08;99122.76;;;11.59;62.40
50590;BME280;36547;50.514;30.840;2023-04-26T00:45:10;99117.65;;;11.56;62.55
50590;BME280;36547;50.514;30.840;2023-04-26T00:46:13;99121.27;;;11.55;62.53
50590;BME280;36547;50.514;30.840;2023-04-26T00:47:15;99123.22;;;11.53;62.60
50590;BME280;36547;50.514;30.840;2023-04-26T00:48:19;99124.07;;;11.53;62.70
50590;BME280;36547;50.514;30.840;2023-04-26T00:49:23;99117.37;;;11.48;62.77
50590;BME280;36547;50.514;30.840;2023-04-26T00:50:26;99125.56;;;11.45;62.91
50590;BME280;36547;50.514;30.840;2023-04-26T00:51:29;99123.86;;;11.44;63.05
50590;BME280;36547;50.514;30.840;2023-04-26T00:52:31;99119.61;;;11.41;63.11
50590;BME280;36547;50.514;30.840;2023-04-26T00:53:33;99122.16;;;11.43;63.12
50590;BME280;36547;50.514;30.840;2023-04-26T00:54:36;99124.08;;;11.41;63.25
50590;BME280;36547;50.514;30.840;2023-04-26T00:55:42;99119.74;;;11.40;63.36
50590;BME280;36547;50.514;30.840;2023-04-26T00:56:46;99116.34;;;11.38;63.39
50590;BME280;36547;50.514;30.840;2023-04-26T00:57:49;99120.91;;;11.36;63.53
50590;BME280;36547;50.514;30.840;2023-04-26T00:58:51;99120.91;;;11.36;63.35
50590;BME280;36547;50.514;30.840;2023-04-26T00:59:54;99120.06;;;11.35;63.45
50590;BME280;36547;50.514;30.840;2023-04-26T01:00:56;99119.21;;;11.34;63.39
50590;BME280;36547;50.514;30.840;2023-04-26T01:01:58;99124.64;;;11.33;63.46
50590;BME280;36547;50.514;30.840;2023-04-26T01:03:01;99115.81;;;11.32;63.36
50590;BME280;36547;50.514;30.840;2023-04-26T01:04:04;99124.00;;;11.29;63.42
50590;BME280;36547;50.514;30.840;2023-04-26T01:05:07;99128.36;;;11.30;63.30
50590;BME280;36547;50.514;30.840;2023-04-26T01:06:12;99117.72;;;11.30;63.42
50590;BME280;36547;50.514;30.840;2023-04-26T01:07:14;99123.25;;;11.27;63.58
50590;BME280;36547;50.514;30.840;2023-04-26T01:08:17;99122.64;;;11.24;63.46
50590;BME280;36547;50.514;30.840;2023-04-26T01:09:20;99123.81;;;11.20;63.63
50590;BME280;36547;50.514;30.840;2023-04-26T01:10:23;99123.70;;;11.21;63.55
50590;BME280;36547;50.514;30.840;2023-04-26T01:11:25;99123.70;;;11.21;63.62
50590;BME280;36547;50.514;30.840;2023-04-26T01:12:28;99127.53;;;11.17;63.74
50590;BME280;36547;50.514;30.840;2023-04-26T01:13:31;99120.72;;;11.13;63.88
50590;BME280;36547;50.514;30.840;2023-04-26T01:14:33;99123.63;;;11.10;63.98
50590;BME280;36547;50.514;30.840;2023-04-26T01:15:37;99127.34;;;11.08;64.02
50590;BME280;36547;50.514;30.840;2023-04-26T01:16:40;99125.09;;;11.02;64.25
50590;BME280;36547;50.514;30.840;2023-04-26T01:17:47;99117.98;;;11.02;64.25
50590;BME280;36547;50.514;30.840;2023-04-26T01:18:50;99119.98;;;10.98;64.36
50590;BME280;36547;50.514;30.840;2023-04-26T01:19:53;99120.23;;;10.95;64.49
50590;BME280;36547;50.514;30.840;2023-04-26T01:20:56;99122.45;;;10.89;64.70
50590;BME280;36547;50.514;30.840;2023-04-26T01:21:58;99118.19;;;10.86;64.84
50590;BME280;36547;50.514;30.840;2023-04-26T01:23:00;99118.53;;;10.82;65.01
50590;BME280;36547;50.514;30.840;2023-04-26T01:24:03;99120.75;;;10.75;65.23
50590;BME280;36547;50.514;30.840;2023-04-26T01:25:06;99127.02;;;10.74;65.36
50590;BME280;36547;50.514;30.840;2023-04-26T01:26:12;99115.84;;;10.69;65.53
50590;BME280;36547;50.514;30.840;2023-04-26T01:27:14;99122.11;;;10.68;65.55
50590;BME280;36547;50.514;30.840;2023-04-26T01:28:16;99114.99;;;10.69;65.58
50590;BME280;36547;50.514;30.840;2023-04-26T01:29:21;99112.47;;;10.67;65.68
50590;BME280;36547;50.514;30.840;2023-04-26T01:30:23;99117.14;;;10.63;65.76
50590;BME280;36547;50.514;30.840;2023-04-26T01:31:25;99117.14;;;10.63;65.81
50590;BME280;36547;50.514;30.840;2023-04-26T01:32:28;99114.58;;;10.62;65.87
50590;BME280;36547;50.514;30.840;2023-04-26T01:33:32;99117.14;;;10.63;65.82
50590;BME280;36547;50.514;30.840;2023-04-26T01:34:34;99115.64;;;10.59;66.01
50590;BME280;36547;50.514;30.840;2023-04-26T01:35:37;99109.47;;;10.59;66.06
50590;BME280;36547;50.514;30.840;2023-04-26T01:36:39;99113.39;;;10.53;66.19
50590;BME280;36547;50.514;30.840;2023-04-26T01:37:42;99112.67;;;10.51;66.34
50590;BME280;36547;50.514;30.840;2023-04-26T01:38:44;99109.27;;;10.49;66.40
50590;BME280;36547;50.514;30.840;2023-04-26T01:39:46;99105.86;;;10.47;66.53
50590;BME280;36547;50.514;30.840;2023-04-26T01:40:48;99111.37;;;10.44;66.59
50590;BME280;36547;50.514;30.840;2023-04-26T01:41:51;99110.31;;;10.47;66.68
50590;BME280;36547;50.514;30.840;2023-04-26T01:42:53;99114.23;;;10.41;66.76
50590;BME280;36547;50.514;30.840;2023-04-26T01:43:55;99108.91;;;10.41;66.80
50590;BME280;36547;50.514;30.840;2023-04-26T01:44:59;99115.18;;;10.40;66.88
50590;BME280;36547;50.514;30.840;2023-04-26T01:46:04;99105.64;;;10.38;67.00
50590;BME280;36547;50.514;30.840;2023-04-26T01:47:06;99110.30;;;10.34;67.12
50590;BME280;36547;50.514;30.840;2023-04-26T01:48:08;99107.75;;;10.33;67.25
50590;BME280;36547;50.514;30.840;2023-04-26T01:49:11;99104.34;;;10.31;67.30
50590;BME280;36547;50.514;30.840;2023-04-26T01:50:14;99110.80;;;10.26;67.47
50590;BME280;36547;50.514;30.840;2023-04-26T01:51:16;99104.97;;;10.21;67.64
50590;BME280;36547;50.514;30.840;2023-04-26T01:52:18;99111.13;;;10.22;67.68
50590;BME280;36547;50.514;30.840;2023-04-26T01:53:21;99107.89;;;10.17;67.83
50590;BME280;36547;50.514;30.840;2023-04-26T01:54:24;99113.20;;;10.17;67.96
50590;BME280;36547;50.514;30.840;2023-04-26T01:55:27;99104.48;;;10.15;68.07
50590;BME280;36547;50.514;30.840;2023-04-26T01:56:30;99111.59;;;10.14;68.10
50590;BME280;36547;50.514;30.840;2023-04-26T01:57:32;99107.14;;;10.15;68.17
50590;BME280;36547;50.514;30.840;2023-04-26T01:58:35;99103.63;;;10.14;68.24
50590;BME280;36547;50.514;30.840;2023-04-26T01:59:37;99100.02;;;10.15;68.32
50590;BME280;36547;50.514;30.840;2023-04-26T02:00:40;99104.48;;;10.15;68.38
50590;BME280;36547;50.514;30.840;2023-04-26T02:01:43;99105.33;;;10.15;68.42
50590;BME280;36547;50.514;30.840;2023-04-26T02:02:45;99104.48;;;10.15;68.47
50590;BME280;36547;50.514;30.840;2023-04-26T02:03:49;99099.92;;;10.17;68.52
50590;BME280;36547;50.514;30.840;2023-04-26T02:04:53;99098.97;;;10.18;68.63
50590;BME280;36547;50.514;30.840;2023-04-26T02:05:57;99104.28;;;10.18;68.64
50590;BME280;36547;50.514;30.840;2023-04-26T02:07:01;99103.27;;;10.20;68.71
50590;BME280;36547;50.514;30.840;2023-04-26T02:08:03;99102.31;;;10.21;68.74
50590;BME280;36547;50.514;30.840;2023-04-26T02:09:06;99103.06;;;10.23;68.75
50590;BME280;36547;50.514;30.840;2023-04-26T02:10:09;99101.36;;;10.22;68.73
50590;BME280;36547;50.514;30.840;2023-04-26T02:11:11;99104.73;;;10.24;68.73
50590;BME280;36547;50.514;30.840;2023-04-26T02:12:13;99107.30;;;10.26;68.79
50590;BME280;36547;50.514;30.840;2023-04-26T02:13:16;99100.08;;;10.28;68.93
50590;BME280;36547;50.514;30.840;2023-04-26T02:14:18;99110.50;;;10.31;68.84
50590;BME280;36547;50.514;30.840;2023-04-26T02:15:20;99106.89;;;10.32;68.72
50590;BME280;36547;50.514;30.840;2023-04-26T02:16:24;99101.68;;;10.31;68.76
50590;BME280;36547;50.514;30.840;2023-04-26T02:17:26;99104.98;;;10.34;68.69
50590;BME280;36547;50.514;30.840;2023-04-26T02:18:28;99103.28;;;10.33;68.79
50590;BME280;36547;50.514;30.840;2023-04-26T02:19:31;99099.48;;;10.37;68.71
50590;BME280;36547;50.514;30.840;2023-04-26T02:20:33;99103.84;;;10.38;68.68
50590;BME280;36547;50.514;30.840;2023-04-26T02:21:56;99104.69;;;10.39;68.61
50590;BME280;36547;50.514;30.840;2023-04-26T02:22:58;99109.87;;;10.40;68.55
50590;BME280;36547;50.514;30.840;2023-04-26T02:24:01;99108.06;;;10.41;68.64
50590;BME280;36547;50.514;30.840;2023-04-26T02:25:05;99106.26;;;10.41;68.65
50590;BME280;36547;50.514;30.840;2023-04-26T02:26:08;99103.50;;;10.43;68.67
50590;BME280;36547;50.514;30.840;2023-04-26T02:27:11;99107.02;;;10.43;68.63
50590;BME280;36547;50.514;30.840;2023-04-26T02:28:14;99107.96;;;10.42;68.69
50590;BME280;36547;50.514;30.840;2023-04-26T02:29:17;99102.65;;;10.42;68.70
50590;BME280;36547;50.514;30.840;2023-04-26T02:30:19;99106.05;;;10.44;68.62
50590;BME280;36547;50.514;30.840;2023-04-26T02:31:21;99102.45;;;10.45;68.62
50590;BME280;36547;50.514;30.840;2023-04-26T02:32:25;99106.05;;;10.44;68.73
50590;BME280;36547;50.514;30.840;2023-04-26T02:33:27;99106.05;;;10.44;68.66
50590;BME280;36547;50.514;30.840;2023-04-26T02:34:29;99112.22;;;10.45;68.74
50590;BME280;36547;50.514;30.840;2023-04-26T02:35:32;99111.57;;;10.41;69.07
50590;BME280;36547;50.514;30.840;2023-04-26T02:36:34;99109.87;;;10.40;69.26
50590;BME280;36547;50.514;30.840;2023-04-26T02:37:36;99106.49;;;10.38;69.79
50590;BME280;36547;50.514;30.840;2023-04-26T02:38:39;99102.23;;;10.36;70.36
50590;BME280;36547;50.514;30.840;2023-04-26T02:39:42;99111.05;;;10.36;70.72
50590;BME280;36547;50.514;30.840;2023-04-26T02:40:45;99097.77;;;10.36;70.89
50590;BME280;36547;50.514;30.840;2023-04-26T02:41:48;99096.83;;;10.37;71.05
50590;BME280;36547;50.514;30.840;2023-04-26T02:42:50;99097.67;;;10.38;71.11
50590;BME280;36547;50.514;30.840;2023-04-26T02:43:53;99097.77;;;10.36;71.01
50590;BME280;36547;50.514;30.840;2023-04-26T02:44:55;99103.94;;;10.37;71.33
50590;BME280;36547;50.514;30.840;2023-04-26T02:45:58;99102.85;;;10.39;71.33
50590;BME280;36547;50.514;30.840;2023-04-26T02:47:00;99100.33;;;10.38;71.42
50590;BME280;36547;50.514;30.840;2023-04-26T02:48:03;99114.33;;;10.40;71.48
50590;BME280;36547;50.514;30.840;2023-04-26T02:49:06;99110.72;;;10.41;71.46
50590;BME280;36547;50.514;30.840;2023-04-26T02:50:09;99106.26;;;10.41;71.52
50590;BME280;36547;50.514;30.840;2023-04-26T02:51:12;99103.60;;;10.41;71.71
50590;BME280;36547;50.514;30.840;2023-04-26T02:52:14;99104.16;;;10.46;71.98
50590;BME280;36547;50.514;30.840;2023-04-26T02:53:17;99103.95;;;10.49;71.75
50590;BME280;36547;50.514;30.840;2023-04-26T02:54:19;99108.20;;;10.52;71.75
50590;BME280;36547;50.514;30.840;2023-04-26T02:55:21;99101.80;;;10.54;71.38
50590;BME280;36547;50.514;30.840;2023-04-26T02:56:24;99094.80;;;10.53;71.61
50590;BME280;36547;50.514;30.840;2023-04-26T02:57:29;99089.28;;;10.56;71.78
50590;BME280;36547;50.514;30.840;2023-04-26T02:58:32;99098.09;;;10.57;71.77
50590;BME280;36547;50.514;30.840;2023-04-26T02:59:34;99097.89;;;10.60;71.71
50590;BME280;36547;50.514;30.840;2023-04-26T03:00:37;99093.23;;;10.63;71.54
50590;BME280;36547;50.514;30.840;2023-04-26T03:01:39;99089.52;;;10.66;71.42
50590;BME280;36547;50.514;30.840;2023-04-26T03:02:42;99089.38;;;10.68;71.55
50590;BME280;36547;50.514;30.840;2023-04-26T03:03:44;99089.38;;;10.68;71.47
50590;BME280;36547;50.514;30.840;2023-04-26T03:04:47;99091.83;;;10.71;71.99
50590;BME280;36547;50.514;30.840;2023-04-26T03:05:49;99084.61;;;10.73;71.91
50590;BME280;36547;50.514;30.840;2023-04-26T03:06:52;99084.40;;;10.76;72.07
50590;BME280;36547;50.514;30.840;2023-04-26T03:07:54;99084.19;;;10.79;71.83
50590;BME280;36547;50.514;30.840;2023-04-26T03:08:57;99087.46;;;10.82;71.82
50590;BME280;36547;50.514;30.840;2023-04-26T03:10:00;99083.84;;;10.83;72.36
50590;BME280;36547;50.514;30.840;2023-04-26T03:11:02;99080.88;;;10.88;72.85
50590;BME280;36547;50.514;30.840;2023-04-26T03:12:06;99078.76;;;10.93;72.96
50590;BME280;36547;50.514;30.840;2023-04-26T03:13:09;99079.72;;;10.92;73.21
50590;BME280;36547;50.514;30.840;2023-04-26T03:14:12;99073.95;;;10.98;73.01
50590;BME280;36547;50.514;30.840;2023-04-26T03:15:15;99081.50;;;11.04;72.80
50590;BME280;36547;50.514;30.840;2023-04-26T03:16:18;99079.59;;;11.06;72.71
50590;BME280;36547;50.514;30.840;2023-04-26T03:17:21;99080.44;;;11.07;72.80
50590;BME280;36547;50.514;30.840;2023-04-26T03:18:23;99080.09;;;11.11;72.96
50590;BME280;36547;50.514;30.840;2023-04-26T03:19:26;99082.54;;;11.14;72.80
50590;BME280;36547;50.514;30.840;2023-04-26T03:20:29;99085.09;;;11.16;72.65
50590;BME280;36547;50.514;30.840;2023-04-26T03:21:32;99088.50;;;11.18;72.30
50590;BME280;36547;50.514;30.840;2023-04-26T03:22:34;99092.96;;;11.17;72.32
50590;BME280;36547;50.514;30.840;2023-04-26T03:23:36;99083.07;;;11.19;72.37
50590;BME280;36547;50.514;30.840;2023-04-26T03:24:39;99086.58;;;11.20;72.38
50590;BME280;36547;50.514;30.840;2023-04-26T03:25:41;99082.97;;;11.21;72.46
50590;BME280;36547;50.514;30.840;2023-04-26T03:26:43;99082.01;;;11.22;72.58
50590;BME280;36547;50.514;30.840;2023-04-26T03:27:47;99087.11;;;11.25;72.54
50590;BME280;36547;50.514;30.840;2023-04-26T03:28:50;99091.34;;;11.27;72.57
50590;BME280;36547;50.514;30.840;2023-04-26T03:29:52;99090.27;;;11.30;72.53
50590;BME280;36547;50.514;30.840;2023-04-26T03:30:54;99084.20;;;11.28;72.33
50590;BME280;36547;50.514;30.840;2023-04-26T03:31:57;99084.31;;;11.26;72.38
50590;BME280;36547;50.514;30.840;2023-04-26T03:32:59;99085.80;;;11.30;72.38
50590;BME280;36547;50.514;30.840;2023-04-26T03:34:01;99087.51;;;11.31;72.25
50590;BME280;36547;50.514;30.840;2023-04-26T03:35:04;99082.30;;;11.30;72.30
50590;BME280;36547;50.514;30.840;2023-04-26T03:36:08;99091.02;;;11.32;72.29
50590;BME280;36547;50.514;30.840;2023-04-26T03:37:10;99088.36;;;11.32;71.83
50590;BME280;36547;50.514;30.840;2023-04-26T03:38:13;99094.95;;;11.26;71.18
50590;BME280;36547;50.514;30.840;2023-04-26T03:39:15;99093.67;;;11.32;71.34
50590;BME280;36547;50.514;30.840;2023-04-26T03:40:18;99091.12;;;11.30;71.51
50590;BME280;36547;50.514;30.840;2023-04-26T03:41:21;99091.87;;;11.32;71.59
50590;BME280;36547;50.514;30.840;2023-04-26T03:42:23;99093.47;;;11.35;71.53
50590;BME280;36547;50.514;30.840;2023-04-26T03:43:26;99102.41;;;11.34;71.62
50590;BME280;36547;50.514;30.840;2023-04-26T03:44:28;99101.34;;;11.37;71.41
50590;BME280;36547;50.514;30.840;2023-04-26T03:45:32;99103.25;;;11.34;71.44
50590;BME280;36547;50.514;30.840;2023-04-26T03:46:34;99099.84;;;11.32;71.58
50590;BME280;36547;50.514;30.840;2023-04-26T03:47:38;99105.91;;;11.34;71.34
50590;BME280;36547;50.514;30.840;2023-04-26T03:48:40;99109.84;;;11.29;71.77
50590;BME280;36547;50.514;30.840;2023-04-26T03:49:43;99111.77;;;11.27;71.92
50590;BME280;36547;50.514;30.840;2023-04-26T03:50:46;99103.89;;;11.25;72.23
50590;BME280;36547;50.514;30.840;2023-04-26T03:51:48;99101.98;;;11.27;72.42
50590;BME280;36547;50.514;30.840;2023-04-26T03:52:50;99105.27;;;11.31;72.44
50590;BME280;36547;50.514;30.840;2023-04-26T03:53:53;99111.55;;;11.30;72.45
50590;BME280;36547;50.514;30.840;2023-04-26T03:54:56;99107.30;;;11.27;72.26
50590;BME280;36547;50.514;30.840;2023-04-26T03:55:58;99113.89;;;11.34;72.27
50590;BME280;36547;50.514;30.840;2023-04-26T03:57:01;99114.95;;;11.32;72.37
50590;BME280;36547;50.514;30.840;2023-04-26T03:58:03;99116.66;;;11.33;72.37
50590;BME280;36547;50.514;30.840;2023-04-26T03:59:05;99112.19;;;11.33;72.25
50590;BME280;36547;50.514;30.840;2023-04-26T04:00:09;99104.21;;;11.33;72.36
50590;BME280;36547;50.514;30.840;2023-04-26T04:01:14;99106.88;;;11.33;72.59
50590;BME280;36547;50.514;30.840;2023-04-26T04:02:16;99112.94;;;11.36;72.74
50590;BME280;36547;50.514;30.840;2023-04-26T04:03:18;99108.36;;;11.38;72.60
50590;BME280;36547;50.514;30.840;2023-04-26T04:04:21;99105.80;;;11.36;72.54
50590;BME280;36547;50.514;30.840;2023-04-26T04:05:24;99104.95;;;11.36;72.66
50590;BME280;36547;50.514;30.840;2023-04-26T04:06:27;99106.44;;;11.40;72.62
50590;BME280;36547;50.514;30.840;2023-04-26T04:07:29;99102.08;;;11.39;72.48
50590;BME280;36547;50.514;30.840;2023-04-26T04:08:31;99105.34;;;11.42;72.39
50590;BME280;36547;50.514;30.840;2023-04-26T04:09:34;99103.53;;;11.43;72.35
50590;BME280;36547;50.514;30.840;2023-04-26T04:10:36;99104.50;;;11.42;72.66
50590;BME280;36547;50.514;30.840;2023-04-26T04:11:39;99107.05;;;11.43;72.47
50590;BME280;36547;50.514;30.840;2023-04-26T04:12:41;99106.20;;;11.43;72.31
50590;BME280;36547;50.514;30.840;2023-04-26T04:13:44;99107.80;;;11.45;72.14
50590;BME280;36547;50.514;30.840;2023-04-26T04:14:46;99111.52;;;11.43;72.21
50590;BME280;36547;50.514;30.840;2023-04-26T04:15:49;99100.66;;;11.46;72.12
50590;BME280;36547;50.514;30.840;2023-04-26T04:16:51;99112.05;;;11.48;72.00
50590;BME280;36547;50.514;30.840;2023-04-26T04:17:54;99107.80;;;11.45;72.26
50590;BME280;36547;50.514;30.840;2023-04-26T04:18:56;99106.94;;;11.45;72.24
50590;BME280;36547;50.514;30.840;2023-04-26T04:20:00;99100.45;;;11.49;72.17
50590;BME280;36547;50.514;30.840;2023-04-26T04:21:05;99100.66;;;11.46;72.15
50590;BME280;36547;50.514;30.840;2023-04-26T04:22:08;99093.42;;;11.48;72.07
50590;BME280;36547;50.514;30.840;2023-04-26T04:23:11;99100.45;;;11.49;72.10
50590;BME280;36547;50.514;30.840;2023-04-26T04:24:15;99096.83;;;11.50;72.31
50590;BME280;36547;50.514;30.840;2023-04-26T04:25:18;99096.09;;;11.48;72.50
50590;BME280;36547;50.514;30.840;2023-04-26T04:26:20;99091.50;;;11.50;72.35
50590;BME280;36547;50.514;30.840;2023-04-26T04:27:22;99094.17;;;11.50;72.59
50590;BME280;36547;50.514;30.840;2023-04-26T04:28:25;99087.78;;;11.52;72.75
50590;BME280;36547;50.514;30.840;2023-04-26T04:29:29;99085.72;;;11.56;72.81
50590;BME280;36547;50.514;30.840;2023-04-26T04:30:32;99084.02;;;11.55;72.73
50590;BME280;36547;50.514;30.840;2023-04-26T04:31:35;99080.40;;;11.56;72.80
50590;BME280;36547;50.514;30.840;2023-04-26T04:32:38;99086.57;;;11.56;72.82
50590;BME280;36547;50.514;30.840;2023-04-26T04:33:40;99084.55;;;11.60;72.97
50590;BME280;36547;50.514;30.840;2023-04-26T04:34:43;99094.23;;;11.61;73.12
50590;BME280;36547;50.514;30.840;2023-04-26T04:35:46;99088.91;;;11.61;73.09
50590;BME280;36547;50.514;30.840;2023-04-26T04:36:48;99083.37;;;11.64;72.99
50590;BME280;36547;50.514;30.840;2023-04-26T04:37:52;99080.48;;;11.67;72.89
50590;BME280;36547;50.514;30.840;2023-04-26T04:38:54;99084.00;;;11.67;72.83
50590;BME280;36547;50.514;30.840;2023-04-26T04:39:57;99083.37;;;11.64;72.88
50590;BME280;36547;50.514;30.840;2023-04-26T04:41:00;99087.62;;;11.66;72.89
50590;BME280;36547;50.514;30.840;2023-04-26T04:42:02;99095.25;;;11.71;72.68
50590;BME280;36547;50.514;30.840;2023-04-26T04:43:05;99098.87;;;11.70;72.32
50590;BME280;36547;50.514;30.840;2023-04-26T04:44:07;99096.09;;;11.72;72.45
50590;BME280;36547;50.514;30.840;2023-04-26T04:45:11;99097.16;;;11.69;72.44
50590;BME280;36547;50.514;30.840;2023-04-26T04:46:14;99092.58;;;11.71;72.55
50590;BME280;36547;50.514;30.840;2023-04-26T04:47:18;99099.72;;;11.70;72.56
50590;BME280;36547;50.514;30.840;2023-04-26T04:48:21;99090.77;;;11.72;72.77
50590;BME280;36547;50.514;30.840;2023-04-26T04:49:24;99094.28;;;11.72;72.52
50590;BME280;36547;50.514;30.840;2023-04-26T04:50:27;99098.65;;;11.73;72.36
50590;BME280;36547;50.514;30.840;2023-04-26T04:51:30;99093.22;;;11.75;72.37
50590;BME280;36547;50.514;30.840;2023-04-26T04:52:33;99095.88;;;11.75;72.27
50590;BME280;36547;50.514;30.840;2023-04-26T04:53:35;99093.33;;;11.73;72.62
50590;BME280;36547;50.514;30.840;2023-04-26T04:54:37;99087.59;;;11.79;72.54
50590;BME280;36547;50.514;30.840;2023-04-26T04:55:40;99089.52;;;11.77;72.67
50590;BME280;36547;50.514;30.840;2023-04-26T04:56:43;99084.19;;;11.77;72.59
50590;BME280;36547;50.514;30.840;2023-04-26T04:57:48;99084.38;;;11.74;72.20
50590;BME280;36547;50.514;30.840;2023-04-26T04:58:51;99080.35;;;11.81;71.88
50590;BME280;36547;50.514;30.840;2023-04-26T04:59:54;99085.89;;;11.78;71.85
50590;BME280;36547;50.514;30.840;2023-04-26T05:00:56;99092.70;;;11.82;72.06
50590;BME280;36547;50.514;30.840;2023-04-26T05:02:03;99082.91;;;11.83;72.01
50590;BME280;36547;50.514;30.840;2023-04-26T05:03:06;99080.95;;;11.85;71.73
50590;BME280;36547;50.514;30.840;2023-04-26T05:04:09;99085.20;;;11.87;71.73
50590;BME280;36547;50.514;30.840;2023-04-26T05:05:12;99084.13;;;11.90;71.66
50590;BME280;36547;50.514;30.840;2023-04-26T05:06:15;99084.98;;;11.90;71.96
50590;BME280;36547;50.514;30.840;2023-04-26T05:07:18;99082.84;;;11.95;71.99
50590;BME280;36547;50.514;30.840;2023-04-26T05:08:23;99074.11;;;11.93;71.89
50590;BME280;36547;50.514;30.840;2023-04-26T05:09:25;99077.63;;;11.94;71.70
50590;BME280;36547;50.514;30.840;2023-04-26T05:10:28;99084.54;;;11.96;71.96
50590;BME280;36547;50.514;30.840;2023-04-26T05:11:31;99077.41;;;11.97;71.48
50590;BME280;36547;50.514;30.840;2023-04-26T05:12:34;99077.14;;;12.00;71.14
50590;BME280;36547;50.514;30.840;2023-04-26T05:13:36;99082.36;;;12.01;71.03
50590;BME280;36547;50.514;30.840;2023-04-26T05:14:40;99081.40;;;12.02;71.16
50590;BME280;36547;50.514;30.840;2023-04-26T05:15:42;99083.84;;;12.06;71.13
50590;BME280;36547;50.514;30.840;2023-04-26T05:16:44;99079.59;;;12.03;71.47
50590;BME280;36547;50.514;30.840;2023-04-26T05:17:48;99082.98;;;12.05;71.59
50590;BME280;36547;50.514;30.840;2023-04-26T05:18:55;99079.59;;;12.03;71.54
50590;BME280;36547;50.514;30.840;2023-04-26T05:19:57;99081.91;;;12.08;71.52
50590;BME280;36547;50.514;30.840;2023-04-26T05:21:00;99082.98;;;12.05;71.33
50590;BME280;36547;50.514;30.840;2023-04-26T05:22:03;99081.80;;;12.09;71.23
50590;BME280;36547;50.514;30.840;2023-04-26T05:23:06;99086.05;;;12.12;71.05
50590;BME280;36547;50.514;30.840;2023-04-26T05:24:09;99081.91;;;12.08;70.88
50590;BME280;36547;50.514;30.840;2023-04-26T05:25:11;99080.95;;;12.09;70.94
50590;BME280;36547;50.514;30.840;2023-04-26T05:26:15;99084.36;;;12.11;71.38
50590;BME280;36547;50.514;30.840;2023-04-26T05:27:37;99082.55;;;12.11;71.45
50590;BME280;36547;50.514;30.840;2023-04-26T05:28:44;99082.40;;;12.13;71.88